sensor_id;sensor_type;location;lat;lon;timestamp;P1;durP1;ratioP1;P2;durP2;ratioP2
39898;SDS011;25571;47.876;10.642;2023-02-28T00:00:44;7.07;;;4.38;;
39898;SDS011;25571;47.876;10.642;2023-02-28T00:03:09;7.43;;;3.55;;
39898;SDS011;25571;47.876;10.642;2023-02-28T00:05:35;4.10;;;3.40;;
39898;SDS011;25571;47.876;10.642;2023-02-28T00:08:00;4.75;;;3.63;;
39898;SDS011;25571;47.876;10.642;2023-02-28T00:10:27;4.10;;;3.65;;
39898;SDS011;25571;47.876;10.642;2023-02-28T00:12:55;4.15;;;3.63;;
39898;SDS011;25571;47.876;10.642;2023-02-28T00:15:25;4.32;;;3.80;;
39898;SDS011;25571;47.876;10.642;2023-02-28T00:17:51;3.95;;;3.55;;
39898;SDS011;25571;47.876;10.642;2023-02-28T00:20:17;4.65;;;3.92;;
39898;SDS011;25571;47.876;10.642;2023-02-28T00:22:44;5.13;;;3.75;;
39898;SDS011;25571;47.876;10.642;2023-02-28T00:25:13;4.15;;;3.45;;
39898;SDS011;25571;47.876;10.642;2023-02-28T00:27:41;4.78;;;4.30;;
39898;SDS011;25571;47.876;10.642;2023-02-28T00:30:07;3.78;;;3.10;;
39898;SDS011;25571;47.876;10.642;2023-02-28T00:32:35;4.18;;;3.78;;
39898;SDS011;25571;47.876;10.642;2023-02-28T00:35:01;4.55;;;3.90;;
39898;SDS011;25571;47.876;10.642;2023-02-28T00:37:27;5.50;;;3.72;;
39898;SDS011;25571;47.876;10.642;2023-02-28T00:39:53;5.80;;;4.00;;
39898;SDS011;25571;47.876;10.642;2023-02-28T00:42:18;3.85;;;3.30;;
39898;SDS011;25571;47.876;10.642;2023-02-28T00:44:44;3.88;;;3.15;;
39898;SDS011;25571;47.876;10.642;2023-02-28T00:47:10;4.88;;;3.25;;
39898;SDS011;25571;47.876;10.642;2023-02-28T00:49:35;3.60;;;3.30;;
39898;SDS011;25571;47.876;10.642;2023-02-28T00:52:01;5.22;;;3.10;;
39898;SDS011;25571;47.876;10.642;2023-02-28T00:54:26;4.07;;;3.67;;
39898;SDS011;25571;47.876;10.642;2023-02-28T00:56:52;4.40;;;3.50;;
39898;SDS011;25571;47.876;10.642;2023-02-28T00:59:18;4.85;;;3.47;;
39898;SDS011;25571;47.876;10.642;2023-02-28T01:01:44;3.58;;;3.25;;
39898;SDS011;25571;47.876;10.642;2023-02-28T01:04:10;3.22;;;2.78;;
39898;SDS011;25571;47.876;10.642;2023-02-28T01:06:36;4.60;;;3.70;;
39898;SDS011;25571;47.876;10.642;2023-02-28T01:09:03;4.20;;;3.38;;
39898;SDS011;25571;47.876;10.642;2023-02-28T01:11:30;5.43;;;3.50;;
39898;SDS011;25571;47.876;10.642;2023-02-28T01:13:57;4.63;;;3.40;;
39898;SDS011;25571;47.876;10.642;2023-02-28T01:16:23;4.55;;;3.00;;
39898;SDS011;25571;47.876;10.642;2023-02-28T01:18:48;4.82;;;3.38;;
39898;SDS011;25571;47.876;10.642;2023-02-28T01:21:15;3.92;;;3.38;;
39898;SDS011;25571;47.876;10.642;2023-02-28T01:23:41;6.28;;;3.25;;
39898;SDS011;25571;47.876;10.642;2023-02-28T01:26:08;4.03;;;3.30;;
39898;SDS011;25571;47.876;10.642;2023-02-28T01:28:42;5.55;;;3.70;;
39898;SDS011;25571;47.876;10.642;2023-02-28T01:31:08;3.75;;;3.17;;
39898;SDS011;25571;47.876;10.642;2023-02-28T01:33:34;5.40;;;4.55;;
39898;SDS011;25571;47.876;10.642;2023-02-28T01:36:22;4.45;;;3.47;;
39898;SDS011;25571;47.876;10.642;2023-02-28T01:38:48;3.80;;;3.45;;
39898;SDS011;25571;47.876;10.642;2023-02-28T01:41:21;3.72;;;3.42;;
39898;SDS011;25571;47.876;10.642;2023-02-28T01:46:14;5.07;;;3.88;;
39898;SDS011;25571;47.876;10.642;2023-02-28T01:54:11;4.15;;;3.75;;
39898;SDS011;25571;47.876;10.642;2023-02-28T01:56:46;4.57;;;3.58;;
39898;SDS011;25571;47.876;10.642;2023-02-28T01:59:22;4.68;;;3.88;;
39898;SDS011;25571;47.876;10.642;2023-02-28T02:02:00;4.00;;;3.38;;
39898;SDS011;25571;47.876;10.642;2023-02-28T02:04:28;4.88;;;3.67;;
39898;SDS011;25571;47.876;10.642;2023-02-28T02:07:02;4.47;;;3.58;;
39898;SDS011;25571;47.876;10.642;2023-02-28T02:09:29;5.90;;;3.67;;
39898;SDS011;25571;47.876;10.642;2023-02-28T02:11:54;6.00;;;4.25;;
39898;SDS011;25571;47.876;10.642;2023-02-28T02:14:40;4.55;;;4.07;;
39898;SDS011;25571;47.876;10.642;2023-02-28T02:28:32;5.88;;;4.28;;
39898;SDS011;25571;47.876;10.642;2023-02-28T02:31:27;5.32;;;4.00;;
39898;SDS011;25571;47.876;10.642;2023-02-28T02:34:05;5.18;;;4.10;;
39898;SDS011;25571;47.876;10.642;2023-02-28T02:36:45;5.78;;;3.50;;
39898;SDS011;25571;47.876;10.642;2023-02-28T02:39:30;5.05;;;3.85;;
39898;SDS011;25571;47.876;10.642;2023-02-28T02:42:21;4.65;;;4.25;;
39898;SDS011;25571;47.876;10.642;2023-02-28T02:45:02;4.60;;;4.10;;
39898;SDS011;25571;47.876;10.642;2023-02-28T02:47:34;3.92;;;3.50;;
39898;SDS011;25571;47.876;10.642;2023-02-28T02:50:02;5.13;;;3.88;;
39898;SDS011;25571;47.876;10.642;2023-02-28T02:52:40;7.03;;;4.82;;
39898;SDS011;25571;47.876;10.642;2023-02-28T02:55:11;5.53;;;4.20;;
39898;SDS011;25571;47.876;10.642;2023-02-28T02:57:40;6.50;;;3.90;;
39898;SDS011;25571;47.876;10.642;2023-02-28T03:00:11;4.22;;;3.58;;
39898;SDS011;25571;47.876;10.642;2023-02-28T03:02:38;6.20;;;4.53;;
39898;SDS011;25571;47.876;10.642;2023-02-28T03:05:07;5.60;;;4.05;;
39898;SDS011;25571;47.876;10.642;2023-02-28T03:07:41;6.20;;;3.95;;
39898;SDS011;25571;47.876;10.642;2023-02-28T03:10:29;5.18;;;3.88;;
39898;SDS011;25571;47.876;10.642;2023-02-28T03:18:20;4.53;;;3.70;;
39898;SDS011;25571;47.876;10.642;2023-02-28T03:21:23;3.90;;;3.50;;
39898;SDS011;25571;47.876;10.642;2023-02-28T03:26:33;6.15;;;3.50;;
39898;SDS011;25571;47.876;10.642;2023-02-28T03:32:02;4.75;;;3.55;;
39898;SDS011;25571;47.876;10.642;2023-02-28T03:34:37;4.32;;;3.58;;
39898;SDS011;25571;47.876;10.642;2023-02-28T03:37:11;4.75;;;3.67;;
39898;SDS011;25571;47.876;10.642;2023-02-28T03:39:43;4.32;;;3.83;;
39898;SDS011;25571;47.876;10.642;2023-02-28T03:42:13;4.80;;;3.33;;
39898;SDS011;25571;47.876;10.642;2023-02-28T03:44:42;4.65;;;3.55;;
39898;SDS011;25571;47.876;10.642;2023-02-28T03:47:16;5.00;;;3.97;;
39898;SDS011;25571;47.876;10.642;2023-02-28T03:52:22;4.60;;;3.70;;
39898;SDS011;25571;47.876;10.642;2023-02-28T03:54:54;6.65;;;4.07;;
39898;SDS011;25571;47.876;10.642;2023-02-28T03:57:27;4.20;;;3.65;;
39898;SDS011;25571;47.876;10.642;2023-02-28T04:00:18;4.38;;;3.40;;
39898;SDS011;25571;47.876;10.642;2023-02-28T04:02:50;5.35;;;3.92;;
39898;SDS011;25571;47.876;10.642;2023-02-28T04:05:17;5.50;;;3.97;;
39898;SDS011;25571;47.876;10.642;2023-02-28T04:07:44;4.63;;;3.60;;
39898;SDS011;25571;47.876;10.642;2023-02-28T04:10:10;4.43;;;3.83;;
39898;SDS011;25571;47.876;10.642;2023-02-28T04:12:36;4.82;;;3.80;;
39898;SDS011;25571;47.876;10.642;2023-02-28T04:15:02;6.57;;;4.63;;
39898;SDS011;25571;47.876;10.642;2023-02-28T04:17:28;5.75;;;4.60;;
39898;SDS011;25571;47.876;10.642;2023-02-28T04:19:53;4.50;;;3.58;;
39898;SDS011;25571;47.876;10.642;2023-02-28T04:22:21;4.88;;;3.63;;
39898;SDS011;25571;47.876;10.642;2023-02-28T04:24:47;4.93;;;4.22;;
39898;SDS011;25571;47.876;10.642;2023-02-28T04:27:12;5.65;;;5.05;;
39898;SDS011;25571;47.876;10.642;2023-02-28T04:29:40;4.57;;;4.18;;
39898;SDS011;25571;47.876;10.642;2023-02-28T04:32:09;6.85;;;4.75;;
39898;SDS011;25571;47.876;10.642;2023-02-28T04:34:35;5.32;;;4.72;;
39898;SDS011;25571;47.876;10.642;2023-02-28T04:37:01;6.65;;;5.30;;
39898;SDS011;25571;47.876;10.642;2023-02-28T04:39:28;5.38;;;4.68;;
39898;SDS011;25571;47.876;10.642;2023-02-28T04:41:54;6.88;;;4.93;;
39898;SDS011;25571;47.876;10.642;2023-02-28T04:44:20;6.68;;;5.60;;
39898;SDS011;25571;47.876;10.642;2023-02-28T04:46:47;6.43;;;5.03;;
39898;SDS011;25571;47.876;10.642;2023-02-28T04:49:13;6.70;;;6.00;;
39898;SDS011;25571;47.876;10.642;2023-02-28T04:51:39;8.13;;;6.25;;
39898;SDS011;25571;47.876;10.642;2023-02-28T04:54:04;8.60;;;6.00;;
39898;SDS011;25571;47.876;10.642;2023-02-28T04:56:30;6.55;;;5.28;;
39898;SDS011;25571;47.876;10.642;2023-02-28T04:58:56;8.38;;;5.70;;
39898;SDS011;25571;47.876;10.642;2023-02-28T05:01:28;8.23;;;6.22;;
39898;SDS011;25571;47.876;10.642;2023-02-28T05:03:57;8.02;;;5.68;;
39898;SDS011;25571;47.876;10.642;2023-02-28T05:06:25;6.28;;;5.68;;
39898;SDS011;25571;47.876;10.642;2023-02-28T05:08:52;8.63;;;6.03;;
39898;SDS011;25571;47.876;10.642;2023-02-28T05:11:19;6.97;;;5.82;;
39898;SDS011;25571;47.876;10.642;2023-02-28T05:13:48;9.00;;;6.43;;
39898;SDS011;25571;47.876;10.642;2023-02-28T05:16:14;6.88;;;5.85;;
39898;SDS011;25571;47.876;10.642;2023-02-28T05:18:40;7.65;;;5.65;;
39898;SDS011;25571;47.876;10.642;2023-02-28T05:21:06;7.72;;;5.53;;
39898;SDS011;25571;47.876;10.642;2023-02-28T05:23:48;7.68;;;6.25;;
39898;SDS011;25571;47.876;10.642;2023-02-28T05:26:14;8.43;;;6.47;;
39898;SDS011;25571;47.876;10.642;2023-02-28T05:28:39;7.40;;;6.03;;
39898;SDS011;25571;47.876;10.642;2023-02-28T05:31:05;8.48;;;6.50;;
39898;SDS011;25571;47.876;10.642;2023-02-28T05:33:30;8.18;;;6.63;;
39898;SDS011;25571;47.876;10.642;2023-02-28T05:35:56;8.77;;;6.88;;
39898;SDS011;25571;47.876;10.642;2023-02-28T05:38:21;7.07;;;5.53;;
39898;SDS011;25571;47.876;10.642;2023-02-28T05:40:47;7.47;;;5.55;;
39898;SDS011;25571;47.876;10.642;2023-02-28T05:43:12;7.38;;;5.45;;
39898;SDS011;25571;47.876;10.642;2023-02-28T05:45:38;6.55;;;5.22;;
39898;SDS011;25571;47.876;10.642;2023-02-28T05:48:04;9.00;;;6.43;;
39898;SDS011;25571;47.876;10.642;2023-02-28T05:50:29;9.88;;;7.07;;
39898;SDS011;25571;47.876;10.642;2023-02-28T05:52:55;9.48;;;7.25;;
39898;SDS011;25571;47.876;10.642;2023-02-28T05:55:20;8.82;;;7.40;;
39898;SDS011;25571;47.876;10.642;2023-02-28T05:57:46;9.70;;;7.32;;
39898;SDS011;25571;47.876;10.642;2023-02-28T06:00:12;9.48;;;6.20;;
39898;SDS011;25571;47.876;10.642;2023-02-28T06:02:40;6.27;;;5.07;;
39898;SDS011;25571;47.876;10.642;2023-02-28T06:05:07;10.85;;;8.10;;
39898;SDS011;25571;47.876;10.642;2023-02-28T06:07:40;10.10;;;8.02;;
39898;SDS011;25571;47.876;10.642;2023-02-28T06:10:06;11.77;;;8.55;;
39898;SDS011;25571;47.876;10.642;2023-02-28T06:12:32;9.18;;;6.97;;
39898;SDS011;25571;47.876;10.642;2023-02-28T06:14:58;9.93;;;7.55;;
39898;SDS011;25571;47.876;10.642;2023-02-28T06:17:23;10.60;;;8.23;;
39898;SDS011;25571;47.876;10.642;2023-02-28T06:19:49;10.13;;;7.75;;
39898;SDS011;25571;47.876;10.642;2023-02-28T06:22:15;10.55;;;8.68;;
39898;SDS011;25571;47.876;10.642;2023-02-28T06:24:40;10.80;;;8.07;;
39898;SDS011;25571;47.876;10.642;2023-02-28T06:27:06;10.75;;;8.60;;
39898;SDS011;25571;47.876;10.642;2023-02-28T06:29:32;15.18;;;9.27;;
39898;SDS011;25571;47.876;10.642;2023-02-28T06:31:58;10.70;;;8.13;;
39898;SDS011;25571;47.876;10.642;2023-02-28T06:34:24;11.50;;;8.60;;
39898;SDS011;25571;47.876;10.642;2023-02-28T06:36:50;10.75;;;8.50;;
39898;SDS011;25571;47.876;10.642;2023-02-28T06:39:17;9.77;;;7.18;;
39898;SDS011;25571;47.876;10.642;2023-02-28T06:41:43;9.63;;;7.20;;
39898;SDS011;25571;47.876;10.642;2023-02-28T06:44:14;9.52;;;7.53;;
39898;SDS011;25571;47.876;10.642;2023-02-28T06:46:41;10.23;;;7.97;;
39898;SDS011;25571;47.876;10.642;2023-02-28T06:49:08;9.13;;;6.90;;
39898;SDS011;25571;47.876;10.642;2023-02-28T06:51:35;12.85;;;8.98;;
39898;SDS011;25571;47.876;10.642;2023-02-28T06:54:02;12.52;;;9.27;;
39898;SDS011;25571;47.876;10.642;2023-02-28T06:56:28;13.57;;;9.32;;
39898;SDS011;25571;47.876;10.642;2023-02-28T06:58:53;14.27;;;9.63;;
39898;SDS011;25571;47.876;10.642;2023-02-28T07:01:19;12.38;;;8.68;;
39898;SDS011;25571;47.876;10.642;2023-02-28T07:03:45;10.93;;;9.07;;
39898;SDS011;25571;47.876;10.642;2023-02-28T07:06:11;11.20;;;8.30;;
39898;SDS011;25571;47.876;10.642;2023-02-28T07:08:37;12.15;;;9.40;;
39898;SDS011;25571;47.876;10.642;2023-02-28T07:11:05;11.13;;;9.10;;
39898;SDS011;25571;47.876;10.642;2023-02-28T07:13:30;12.82;;;9.77;;
39898;SDS011;25571;47.876;10.642;2023-02-28T07:16:05;13.15;;;9.48;;
39898;SDS011;25571;47.876;10.642;2023-02-28T07:18:33;13.13;;;9.52;;
39898;SDS011;25571;47.876;10.642;2023-02-28T07:21:03;15.02;;;9.90;;
39898;SDS011;25571;47.876;10.642;2023-02-28T07:23:30;10.52;;;8.00;;
39898;SDS011;25571;47.876;10.642;2023-02-28T07:25:56;8.80;;;6.65;;
39898;SDS011;25571;47.876;10.642;2023-02-28T07:28:21;13.52;;;9.18;;
39898;SDS011;25571;47.876;10.642;2023-02-28T07:30:47;14.35;;;10.43;;
39898;SDS011;25571;47.876;10.642;2023-02-28T07:33:13;14.00;;;10.05;;
39898;SDS011;25571;47.876;10.642;2023-02-28T07:35:39;15.35;;;9.55;;
39898;SDS011;25571;47.876;10.642;2023-02-28T07:38:05;13.98;;;9.75;;
39898;SDS011;25571;47.876;10.642;2023-02-28T07:40:32;14.85;;;10.07;;
39898;SDS011;25571;47.876;10.642;2023-02-28T07:42:59;17.45;;;11.35;;
39898;SDS011;25571;47.876;10.642;2023-02-28T07:45:25;15.70;;;10.52;;
39898;SDS011;25571;47.876;10.642;2023-02-28T07:47:51;12.88;;;10.30;;
39898;SDS011;25571;47.876;10.642;2023-02-28T07:50:17;15.38;;;10.82;;
39898;SDS011;25571;47.876;10.642;2023-02-28T07:52:43;17.25;;;10.93;;
39898;SDS011;25571;47.876;10.642;2023-02-28T07:55:09;15.70;;;10.52;;
39898;SDS011;25571;47.876;10.642;2023-02-28T07:57:35;15.88;;;10.57;;
39898;SDS011;25571;47.876;10.642;2023-02-28T08:00:01;14.02;;;9.48;;
39898;SDS011;25571;47.876;10.642;2023-02-28T08:02:28;11.95;;;8.50;;
39898;SDS011;25571;47.876;10.642;2023-02-28T08:04:54;11.88;;;8.27;;
39898;SDS011;25571;47.876;10.642;2023-02-28T08:07:19;15.13;;;10.55;;
39898;SDS011;25571;47.876;10.642;2023-02-28T08:09:45;12.10;;;8.85;;
39898;SDS011;25571;47.876;10.642;2023-02-28T08:12:11;15.13;;;9.45;;
39898;SDS011;25571;47.876;10.642;2023-02-28T08:14:37;11.70;;;8.85;;
39898;SDS011;25571;47.876;10.642;2023-02-28T08:17:03;13.95;;;9.32;;
39898;SDS011;25571;47.876;10.642;2023-02-28T08:19:29;13.18;;;9.20;;
39898;SDS011;25571;47.876;10.642;2023-02-28T08:21:55;18.25;;;12.13;;
39898;SDS011;25571;47.876;10.642;2023-02-28T08:24:21;17.75;;;11.68;;
39898;SDS011;25571;47.876;10.642;2023-02-28T08:26:46;14.52;;;10.18;;
39898;SDS011;25571;47.876;10.642;2023-02-28T08:29:12;13.10;;;9.70;;
39898;SDS011;25571;47.876;10.642;2023-02-28T08:31:38;14.40;;;10.30;;
39898;SDS011;25571;47.876;10.642;2023-02-28T08:34:11;13.80;;;9.68;;
39898;SDS011;25571;47.876;10.642;2023-02-28T08:36:39;11.77;;;8.13;;
39898;SDS011;25571;47.876;10.642;2023-02-28T08:39:05;12.05;;;8.32;;
39898;SDS011;25571;47.876;10.642;2023-02-28T08:41:31;14.90;;;10.25;;
39898;SDS011;25571;47.876;10.642;2023-02-28T08:43:57;14.63;;;10.45;;
39898;SDS011;25571;47.876;10.642;2023-02-28T08:46:23;13.88;;;10.13;;
39898;SDS011;25571;47.876;10.642;2023-02-28T08:48:51;13.85;;;9.75;;
39898;SDS011;25571;47.876;10.642;2023-02-28T08:51:18;16.35;;;10.63;;
39898;SDS011;25571;47.876;10.642;2023-02-28T08:53:50;18.63;;;10.98;;
39898;SDS011;25571;47.876;10.642;2023-02-28T08:56:20;12.00;;;8.68;;
39898;SDS011;25571;47.876;10.642;2023-02-28T08:58:46;11.65;;;8.27;;
39898;SDS011;25571;47.876;10.642;2023-02-28T09:01:15;15.68;;;9.73;;
39898;SDS011;25571;47.876;10.642;2023-02-28T09:03:45;17.15;;;10.18;;
39898;SDS011;25571;47.876;10.642;2023-02-28T09:06:12;15.80;;;9.65;;
39898;SDS011;25571;47.876;10.642;2023-02-28T09:08:40;17.33;;;11.65;;
39898;SDS011;25571;47.876;10.642;2023-02-28T09:11:06;14.93;;;10.18;;
39898;SDS011;25571;47.876;10.642;2023-02-28T09:13:32;16.55;;;10.35;;
39898;SDS011;25571;47.876;10.642;2023-02-28T09:15:59;14.10;;;9.90;;
39898;SDS011;25571;47.876;10.642;2023-02-28T09:18:25;18.38;;;11.45;;
39898;SDS011;25571;47.876;10.642;2023-02-28T09:20:51;16.27;;;10.45;;
39898;SDS011;25571;47.876;10.642;2023-02-28T09:23:18;16.65;;;11.57;;
39898;SDS011;25571;47.876;10.642;2023-02-28T09:25:47;14.63;;;9.65;;
39898;SDS011;25571;47.876;10.642;2023-02-28T09:28:15;13.85;;;9.48;;
39898;SDS011;25571;47.876;10.642;2023-02-28T09:30:41;13.02;;;8.93;;
39898;SDS011;25571;47.876;10.642;2023-02-28T09:33:08;11.40;;;7.97;;
39898;SDS011;25571;47.876;10.642;2023-02-28T09:35:34;13.30;;;9.45;;
39898;SDS011;25571;47.876;10.642;2023-02-28T09:38:02;15.23;;;10.88;;
39898;SDS011;25571;47.876;10.642;2023-02-28T09:40:28;19.55;;;11.65;;
39898;SDS011;25571;47.876;10.642;2023-02-28T09:42:55;18.40;;;11.68;;
39898;SDS011;25571;47.876;10.642;2023-02-28T09:45:35;14.27;;;10.18;;
39898;SDS011;25571;47.876;10.642;2023-02-28T09:48:50;15.02;;;10.95;;
39898;SDS011;25571;47.876;10.642;2023-02-28T09:50:55;12.18;;;9.00;;
39898;SDS011;25571;47.876;10.642;2023-02-28T09:53:32;16.30;;;11.60;;
39898;SDS011;25571;47.876;10.642;2023-02-28T09:56:09;17.15;;;11.27;;
39898;SDS011;25571;47.876;10.642;2023-02-28T09:58:57;13.00;;;8.98;;
39898;SDS011;25571;47.876;10.642;2023-02-28T10:01:50;12.82;;;9.43;;
39898;SDS011;25571;47.876;10.642;2023-02-28T10:10:01;17.10;;;11.60;;
39898;SDS011;25571;47.876;10.642;2023-02-28T10:12:39;16.45;;;10.85;;
39898;SDS011;25571;47.876;10.642;2023-02-28T10:15:12;15.30;;;11.13;;
39898;SDS011;25571;47.876;10.642;2023-02-28T10:17:40;14.48;;;10.73;;
39898;SDS011;25571;47.876;10.642;2023-02-28T10:20:12;15.90;;;9.88;;
39898;SDS011;25571;47.876;10.642;2023-02-28T10:22:57;15.07;;;11.40;;
39898;SDS011;25571;47.876;10.642;2023-02-28T10:25:33;15.90;;;10.85;;
39898;SDS011;25571;47.876;10.642;2023-02-28T10:28:04;14.32;;;10.60;;
39898;SDS011;25571;47.876;10.642;2023-02-28T10:30:36;14.23;;;9.75;;
39898;SDS011;25571;47.876;10.642;2023-02-28T10:33:05;13.07;;;8.77;;
39898;SDS011;25571;47.876;10.642;2023-02-28T10:35:30;23.48;;;13.93;;
39898;SDS011;25571;47.876;10.642;2023-02-28T10:37:59;15.18;;;11.05;;
39898;SDS011;25571;47.876;10.642;2023-02-28T10:40:29;15.73;;;11.40;;
39898;SDS011;25571;47.876;10.642;2023-02-28T10:42:58;14.82;;;10.38;;
39898;SDS011;25571;47.876;10.642;2023-02-28T10:45:26;16.50;;;10.98;;
39898;SDS011;25571;47.876;10.642;2023-02-28T10:53:10;17.85;;;12.68;;
39898;SDS011;25571;47.876;10.642;2023-02-28T10:58:42;15.02;;;9.30;;
39898;SDS011;25571;47.876;10.642;2023-02-28T11:01:14;15.52;;;11.43;;
39898;SDS011;25571;47.876;10.642;2023-02-28T11:06:12;18.02;;;11.45;;
39898;SDS011;25571;47.876;10.642;2023-02-28T11:08:45;14.25;;;9.93;;
39898;SDS011;25571;47.876;10.642;2023-02-28T11:11:19;11.63;;;8.25;;
39898;SDS011;25571;47.876;10.642;2023-02-28T11:13:47;15.60;;;10.82;;
39898;SDS011;25571;47.876;10.642;2023-02-28T11:16:19;19.10;;;12.85;;
39898;SDS011;25571;47.876;10.642;2023-02-28T11:21:20;17.38;;;12.77;;
39898;SDS011;25571;47.876;10.642;2023-02-28T11:23:47;21.58;;;14.35;;
39898;SDS011;25571;47.876;10.642;2023-02-28T11:26:15;15.40;;;10.98;;
39898;SDS011;25571;47.876;10.642;2023-02-28T11:32:29;18.27;;;12.45;;
39898;SDS011;25571;47.876;10.642;2023-02-28T11:37:59;16.10;;;11.35;;
39898;SDS011;25571;47.876;10.642;2023-02-28T11:40:31;15.02;;;10.13;;
39898;SDS011;25571;47.876;10.642;2023-02-28T11:46:03;16.42;;;10.70;;
39898;SDS011;25571;47.876;10.642;2023-02-28T11:56:43;13.02;;;10.75;;
39898;SDS011;25571;47.876;10.642;2023-02-28T11:59:29;15.10;;;11.00;;
39898;SDS011;25571;47.876;10.642;2023-02-28T12:07:04;16.20;;;11.73;;
39898;SDS011;25571;47.876;10.642;2023-02-28T12:21:14;13.25;;;9.48;;
39898;SDS011;25571;47.876;10.642;2023-02-28T12:26:43;20.08;;;13.35;;
39898;SDS011;25571;47.876;10.642;2023-02-28T12:34:29;16.92;;;12.68;;
39898;SDS011;25571;47.876;10.642;2023-02-28T12:36:58;16.40;;;11.48;;
39898;SDS011;25571;47.876;10.642;2023-02-28T12:39:30;14.68;;;10.45;;
39898;SDS011;25571;47.876;10.642;2023-02-28T12:42:01;15.90;;;10.35;;
39898;SDS011;25571;47.876;10.642;2023-02-28T12:47:19;14.77;;;9.05;;
39898;SDS011;25571;47.876;10.642;2023-02-28T12:52:35;13.23;;;9.82;;
39898;SDS011;25571;47.876;10.642;2023-02-28T13:00:49;19.05;;;12.07;;
39898;SDS011;25571;47.876;10.642;2023-02-28T13:06:05;16.55;;;12.13;;
39898;SDS011;25571;47.876;10.642;2023-02-28T13:11:48;15.82;;;11.13;;
39898;SDS011;25571;47.876;10.642;2023-02-28T13:14:37;15.98;;;10.35;;
39898;SDS011;25571;47.876;10.642;2023-02-28T13:19:34;16.02;;;11.07;;
39898;SDS011;25571;47.876;10.642;2023-02-28T13:22:02;15.77;;;10.70;;
39898;SDS011;25571;47.876;10.642;2023-02-28T13:24:36;13.98;;;10.20;;
39898;SDS011;25571;47.876;10.642;2023-02-28T13:29:40;15.80;;;10.60;;
39898;SDS011;25571;47.876;10.642;2023-02-28T13:43:08;15.55;;;11.90;;
39898;SDS011;25571;47.876;10.642;2023-02-28T13:50:32;11.90;;;8.65;;
39898;SDS011;25571;47.876;10.642;2023-02-28T14:06:59;17.65;;;11.50;;
39898;SDS011;25571;47.876;10.642;2023-02-28T14:09:30;16.33;;;12.30;;
39898;SDS011;25571;47.876;10.642;2023-02-28T14:15:02;15.68;;;10.50;;
39898;SDS011;25571;47.876;10.642;2023-02-28T14:17:30;16.20;;;11.48;;
39898;SDS011;25571;47.876;10.642;2023-02-28T14:19:57;15.38;;;11.70;;
39898;SDS011;25571;47.876;10.642;2023-02-28T14:28:07;14.45;;;9.75;;
39898;SDS011;25571;47.876;10.642;2023-02-28T14:30:56;14.50;;;10.48;;
39898;SDS011;25571;47.876;10.642;2023-02-28T14:39:10;15.05;;;10.38;;
39898;SDS011;25571;47.876;10.642;2023-02-28T14:41:39;15.90;;;11.43;;
39898;SDS011;25571;47.876;10.642;2023-02-28T14:44:39;16.80;;;11.50;;
39898;SDS011;25571;47.876;10.642;2023-02-28T14:47:01;13.93;;;10.38;;
39898;SDS011;25571;47.876;10.642;2023-02-28T14:49:43;13.90;;;10.52;;
39898;SDS011;25571;47.876;10.642;2023-02-28T14:52:19;15.85;;;12.45;;
39898;SDS011;25571;47.876;10.642;2023-02-28T14:54:51;16.20;;;12.55;;
39898;SDS011;25571;47.876;10.642;2023-02-28T14:57:26;12.80;;;9.85;;
39898;SDS011;25571;47.876;10.642;2023-02-28T15:00:00;17.45;;;13.15;;
39898;SDS011;25571;47.876;10.642;2023-02-28T15:02:34;18.08;;;12.32;;
39898;SDS011;25571;47.876;10.642;2023-02-28T15:05:02;14.02;;;11.18;;
39898;SDS011;25571;47.876;10.642;2023-02-28T15:07:35;15.65;;;12.77;;
39898;SDS011;25571;47.876;10.642;2023-02-28T15:10:10;17.70;;;12.00;;
39898;SDS011;25571;47.876;10.642;2023-02-28T15:12:52;16.70;;;11.35;;
39898;SDS011;25571;47.876;10.642;2023-02-28T15:15:21;18.25;;;12.80;;
39898;SDS011;25571;47.876;10.642;2023-02-28T15:17:50;18.45;;;12.68;;
39898;SDS011;25571;47.876;10.642;2023-02-28T15:20:18;19.63;;;14.20;;
39898;SDS011;25571;47.876;10.642;2023-02-28T15:22:44;15.65;;;11.90;;
39898;SDS011;25571;47.876;10.642;2023-02-28T15:25:13;18.98;;;13.40;;
39898;SDS011;25571;47.876;10.642;2023-02-28T15:27:47;16.25;;;12.52;;
39898;SDS011;25571;47.876;10.642;2023-02-28T15:30:29;17.42;;;12.60;;
39898;SDS011;25571;47.876;10.642;2023-02-28T15:40:56;15.50;;;11.52;;
39898;SDS011;25571;47.876;10.642;2023-02-28T15:43:30;18.17;;;13.02;;
39898;SDS011;25571;47.876;10.642;2023-02-28T15:46:14;18.05;;;13.32;;
39898;SDS011;25571;47.876;10.642;2023-02-28T15:48:44;17.10;;;12.65;;
39898;SDS011;25571;47.876;10.642;2023-02-28T15:51:24;16.48;;;12.25;;
39898;SDS011;25571;47.876;10.642;2023-02-28T15:54:06;16.75;;;12.13;;
39898;SDS011;25571;47.876;10.642;2023-02-28T15:56:35;15.18;;;11.20;;
39898;SDS011;25571;47.876;10.642;2023-02-28T15:59:08;18.83;;;13.23;;
39898;SDS011;25571;47.876;10.642;2023-02-28T16:01:41;15.23;;;11.00;;
39898;SDS011;25571;47.876;10.642;2023-02-28T16:04:12;15.32;;;10.30;;
39898;SDS011;25571;47.876;10.642;2023-02-28T16:06:59;15.63;;;11.15;;
39898;SDS011;25571;47.876;10.642;2023-02-28T16:09:29;15.90;;;11.38;;
39898;SDS011;25571;47.876;10.642;2023-02-28T16:11:56;16.98;;;12.68;;
39898;SDS011;25571;47.876;10.642;2023-02-28T16:14:28;14.50;;;11.10;;
39898;SDS011;25571;47.876;10.642;2023-02-28T16:17:03;18.13;;;10.02;;
39898;SDS011;25571;47.876;10.642;2023-02-28T16:19:33;15.05;;;10.30;;
39898;SDS011;25571;47.876;10.642;2023-02-28T16:21:59;15.90;;;11.75;;
39898;SDS011;25571;47.876;10.642;2023-02-28T16:24:26;13.32;;;9.95;;
39898;SDS011;25571;47.876;10.642;2023-02-28T16:26:52;14.52;;;9.57;;
39898;SDS011;25571;47.876;10.642;2023-02-28T16:29:30;9.73;;;7.45;;
39898;SDS011;25571;47.876;10.642;2023-02-28T16:31:58;17.52;;;13.35;;
39898;SDS011;25571;47.876;10.642;2023-02-28T16:34:25;15.93;;;11.18;;
39898;SDS011;25571;47.876;10.642;2023-02-28T16:36:51;14.23;;;9.90;;
39898;SDS011;25571;47.876;10.642;2023-02-28T16:39:17;14.00;;;10.48;;
39898;SDS011;25571;47.876;10.642;2023-02-28T16:41:45;14.05;;;9.40;;
39898;SDS011;25571;47.876;10.642;2023-02-28T16:44:28;14.30;;;10.43;;
39898;SDS011;25571;47.876;10.642;2023-02-28T16:46:56;14.93;;;9.52;;
39898;SDS011;25571;47.876;10.642;2023-02-28T16:49:21;12.48;;;9.20;;
39898;SDS011;25571;47.876;10.642;2023-02-28T16:51:47;11.48;;;8.25;;
39898;SDS011;25571;47.876;10.642;2023-02-28T16:54:12;14.73;;;11.23;;
39898;SDS011;25571;47.876;10.642;2023-02-28T16:56:39;14.63;;;10.13;;
39898;SDS011;25571;47.876;10.642;2023-02-28T16:59:08;13.90;;;9.82;;
39898;SDS011;25571;47.876;10.642;2023-02-28T17:01:35;16.60;;;11.23;;
39898;SDS011;25571;47.876;10.642;2023-02-28T17:04:00;13.98;;;10.23;;
39898;SDS011;25571;47.876;10.642;2023-02-28T17:06:27;15.30;;;10.40;;
39898;SDS011;25571;47.876;10.642;2023-02-28T17:08:54;12.88;;;8.93;;
39898;SDS011;25571;47.876;10.642;2023-02-28T17:11:20;16.75;;;10.70;;
39898;SDS011;25571;47.876;10.642;2023-02-28T17:13:46;16.15;;;10.57;;
39898;SDS011;25571;47.876;10.642;2023-02-28T17:16:25;12.10;;;9.95;;
39898;SDS011;25571;47.876;10.642;2023-02-28T17:18:59;15.50;;;10.52;;
39898;SDS011;25571;47.876;10.642;2023-02-28T17:21:29;15.68;;;9.70;;
39898;SDS011;25571;47.876;10.642;2023-02-28T17:23:55;15.82;;;10.82;;